Time;durP1;ratioP1;P1;durP2;ratioP2;P2;SDS_P1;SDS_P2;PMS_P1;PMS_P2;Temp;Humidity;BMP_temperature;BMP_pressure;BME280_temperature;BME280_humidity;BME280_pressure;Samples;Min_cycle;Max_cycle;Signal;HPM_P1;HPM_P2
2021/03/15 00:00:45;;;;;;;1.27;0.60;;;17.80;50.10;;;;;;5005241;28;20440;-62
2021/03/15 00:03:10;;;;;;;1.00;0.68;;;17.80;50.10;;;;;;5004769;28;20755;-62
2021/03/15 00:05:36;;;;;;;1.67;0.82;;;17.80;50.10;;;;;;5002811;28;20045;-61
2021/03/15 00:08:01;;;;;;;1.80;0.80;;;17.80;50.10;;;;;;5004949;28;20488;-60
2021/03/15 00:10:27;;;;;;;0.85;0.65;;;17.80;50.10;;;;;;5005340;28;20120;-59
2021/03/15 00:12:53;;;;;;;1.67;0.70;;;17.80;50.20;;;;;;5004815;28;20101;-61
2021/03/15 00:15:19;;;;;;;1.75;0.90;;;17.80;50.00;;;;;;5004378;28;20037;-60
2021/03/15 00:17:45;;;;;;;0.73;0.70;;;17.80;50.00;;;;;;5005100;28;20512;-59
2021/03/15 00:20:12;;;;;;;1.63;0.50;;;17.80;50.00;;;;;;5003312;28;20032;-60
2021/03/15 00:22:38;;;;;;;1.20;0.60;;;17.80;50.00;;;;;;5005676;28;20037;-61
2021/03/15 00:25:05;;;;;;;1.33;0.60;;;17.80;50.00;;;;;;5003312;28;20037;-61
2021/03/15 00:27:31;;;;;;;1.25;0.90;;;17.80;50.00;;;;;;5002971;28;20080;-62
2021/03/15 00:29:56;;;;;;;1.20;0.57;;;17.80;50.00;;;;;;5004106;28;20034;-60
2021/03/15 00:32:22;;;;;;;0.93;0.65;;;17.90;50.00;;;;;;5005150;28;20112;-61
2021/03/15 00:34:47;;;;;;;1.33;1.00;;;17.80;49.90;;;;;;5004868;28;20052;-60
2021/03/15 00:37:13;;;;;;;0.85;0.60;;;17.90;49.90;;;;;;5002463;28;20463;-61
2021/03/15 00:39:38;;;;;;;1.20;0.70;;;17.90;49.80;;;;;;5004623;28;20034;-55
2021/03/15 00:42:04;;;;;;;1.63;1.17;;;17.90;49.70;;;;;;5002772;28;20133;-60
2021/03/15 00:44:30;;;;;;;1.35;0.75;;;17.90;49.70;;;;;;5003165;28;20041;-61
2021/03/15 00:46:55;;;;;;;1.08;0.73;;;17.90;49.70;;;;;;5004659;28;20084;-61
2021/03/15 00:49:21;;;;;;;1.60;0.70;;;17.90;49.60;;;;;;5002802;28;20080;-62
2021/03/15 00:51:46;;;;;;;0.25;0.25;;;17.90;49.60;;;;;;5003752;28;20650;-62
2021/03/15 00:54:12;;;;;;;1.33;0.80;;;17.90;49.60;;;;;;5004185;28;20418;-62
2021/03/15 00:56:37;;;;;;;1.38;0.77;;;17.90;49.60;;;;;;5004018;28;20112;-62
2021/03/15 00:59:03;;;;;;;1.58;0.77;;;17.90;49.60;;;;;;5004260;28;20097;-63
2021/03/15 01:01:28;;;;;;;1.38;0.60;;;17.90;49.60;;;;;;5002519;28;20196;-61
2021/03/15 01:03:54;;;;;;;0.77;0.65;;;17.90;49.60;;;;;;5003239;28;20022;-61
2021/03/15 01:06:19;;;;;;;0.80;0.50;;;17.90;49.50;;;;;;5003993;28;20064;-60
2021/03/15 01:08:45;;;;;;;1.20;0.50;;;17.90;49.50;;;;;;5004863;28;20040;-59
2021/03/15 01:11:10;;;;;;;0.93;0.40;;;17.90;49.50;;;;;;5004635;28;20113;-60
2021/03/15 01:13:36;;;;;;;1.10;0.60;;;17.90;49.50;;;;;;4986544;28;20045;-61
2021/03/15 01:16:02;;;;;;;0.85;0.50;;;17.90;49.50;;;;;;4986605;28;20060;-60
2021/03/15 01:18:27;;;;;;;1.10;0.80;;;17.90;49.50;;;;;;5003533;28;20038;-61
2021/03/15 01:20:53;;;;;;;1.27;0.77;;;17.90;49.40;;;;;;5004526;28;20125;-62
2021/03/15 01:23:19;;;;;;;1.63;0.82;;;17.90;49.50;;;;;;5004385;28;20030;-59
2021/03/15 01:25:44;;;;;;;1.05;0.63;;;17.90;49.40;;;;;;5004537;28;20038;-60
2021/03/15 01:28:12;;;;;;;1.13;0.60;;;17.90;49.40;;;;;;5003943;28;20520;-60
2021/03/15 01:30:38;;;;;;;1.83;0.60;;;17.90;49.40;;;;;;5003504;28;20034;-60
2021/03/15 01:33:04;;;;;;;1.95;0.75;;;17.90;49.40;;;;;;5004209;28;20038;-61
2021/03/15 01:35:29;;;;;;;0.75;0.60;;;17.90;49.40;;;;;;5003685;28;20046;-59
2021/03/15 01:37:55;;;;;;;0.88;0.63;;;17.80;49.50;;;;;;5002835;28;20121;-60
2021/03/15 01:40:20;;;;;;;1.00;0.50;;;17.80;49.50;;;;;;5002058;28;20049;-60
2021/03/15 01:42:46;;;;;;;0.98;0.65;;;17.80;49.50;;;;;;5004551;28;20050;-61
2021/03/15 01:45:12;;;;;;;1.38;0.85;;;17.80;49.50;;;;;;5003615;28;20045;-62
2021/03/15 01:47:38;;;;;;;0.93;0.43;;;17.80;49.50;;;;;;5003584;28;20584;-54
2021/03/15 01:50:04;;;;;;;0.63;0.50;;;17.90;49.50;;;;;;5001568;28;20042;-63
2021/03/15 01:52:30;;;;;;;1.00;0.50;;;17.80;49.50;;;;;;5003565;28;20068;-57
2021/03/15 01:54:55;;;;;;;0.82;0.52;;;17.80;49.50;;;;;;5001630;28;20488;-61
2021/03/15 01:57:21;;;;;;;1.48;0.60;;;17.80;49.60;;;;;;5001620;28;20053;-61
2021/03/15 01:59:46;;;;;;;1.42;0.50;;;17.80;49.50;;;;;;5004020;28;20042;-61
2021/03/15 02:02:12;;;;;;;0.93;0.63;;;17.80;49.40;;;;;;5002961;28;20551;-60
2021/03/15 02:04:38;;;;;;;1.10;0.65;;;17.80;49.40;;;;;;5003507;28;20125;-60
2021/03/15 02:07:04;;;;;;;0.98;0.55;;;17.80;49.40;;;;;;5002613;28;20583;-62
2021/03/15 02:09:29;;;;;;;0.55;0.50;;;17.90;49.40;;;;;;5002127;28;20125;-57
2021/03/15 02:12:28;;;;;;;1.02;0.63;;;17.90;49.40;;;;;;5004161;28;20037;-62
2021/03/15 02:18:04;;;;;;;1.85;0.50;;;17.80;49.20;;;;;;4975357;28;20047;-63
2021/03/15 02:21:07;;;;;;;0.80;0.80;;;17.90;49.20;;;;;;4978709;28;20657;-63
2021/03/15 02:23:43;;;;;;;0.95;0.75;;;17.90;49.20;;;;;;4968718;28;20508;-63
2021/03/15 02:26:18;;;;;;;0.50;0.50;;;17.90;49.20;;;;;;4970754;28;20034;-62
2021/03/15 02:28:59;;;;;;;0.95;0.60;;;17.90;49.10;;;;;;4982176;28;20042;-63
2021/03/15 02:31:42;;;;;;;1.58;0.60;;;17.90;49.10;;;;;;4977506;28;20501;-60
2021/03/15 02:34:34;;;;;;;0.93;0.63;;;17.90;49.00;;;;;;4984426;28;20042;-61
2021/03/15 02:37:01;;;;;;;0.70;0.50;;;17.90;49.00;;;;;;4985171;28;20034;-61
2021/03/15 02:39:28;;;;;;;1.27;0.50;;;17.90;49.00;;;;;;4963391;28;20030;-61
2021/03/15 02:41:56;;;;;;;0.93;0.50;;;17.90;49.00;;;;;;4973053;28;20038;-62
2021/03/15 02:44:21;;;;;;;0.73;0.60;;;17.90;49.00;;;;;;4967707;28;20050;-63
2021/03/15 02:46:47;;;;;;;0.88;0.70;;;17.90;49.00;;;;;;4967891;28;20050;-63
2021/03/15 02:49:13;;;;;;;1.13;0.80;;;17.90;49.00;;;;;;4984241;28;20125;-64
2021/03/15 02:51:39;;;;;;;0.80;0.77;;;17.90;49.00;;;;;;4957905;28;20035;-64
2021/03/15 02:54:06;;;;;;;0.68;0.55;;;17.90;49.00;;;;;;4958146;28;20414;-61
2021/03/15 02:56:32;;;;;;;0.50;0.40;;;17.90;49.00;;;;;;4971471;28;20070;-55
2021/03/15 02:59:00;;;;;;;0.73;0.40;;;17.90;49.10;;;;;;4969070;28;20030;-62
2021/03/15 03:01:25;;;;;;;1.15;0.60;;;17.90;49.00;;;;;;4979575;28;20095;-60
2021/03/15 03:03:53;;;;;;;1.15;0.50;;;17.90;49.00;;;;;;4986874;28;20035;-61
2021/03/15 03:06:20;;;;;;;1.33;0.63;;;17.90;49.00;;;;;;4995506;28;20463;-63
2021/03/15 03:08:45;;;;;;;0.73;0.60;;;17.90;48.90;;;;;;4961226;28;20030;-61
2021/03/15 03:11:11;;;;;;;2.53;0.60;;;17.80;48.90;;;;;;4978525;28;21046;-61
2021/03/15 03:13:36;;;;;;;1.60;0.95;;;17.80;48.80;;;;;;4976935;28;20583;-63
2021/03/15 03:16:02;;;;;;;1.10;0.77;;;17.90;48.80;;;;;;4979648;28;20149;-60
2021/03/15 03:18:27;;;;;;;1.48;0.70;;;17.90;48.80;;;;;;4958997;28;20121;-60
2021/03/15 03:20:54;;;;;;;1.02;0.65;;;17.90;48.80;;;;;;4981857;28;20046;-61
2021/03/15 03:23:19;;;;;;;1.30;1.00;;;17.90;48.80;;;;;;4962534;28;20054;-64
2021/03/15 03:25:45;;;;;;;1.35;0.90;;;17.90;49.00;;;;;;4977212;28;20114;-63
2021/03/15 03:28:10;;;;;;;1.10;0.73;;;17.80;49.00;;;;;;4972652;28;20035;-62
2021/03/15 03:30:38;;;;;;;0.60;0.55;;;17.80;49.10;;;;;;4966572;28;20065;-61
2021/03/15 03:33:06;;;;;;;0.93;0.50;;;17.80;49.00;;;;;;4986429;28;20531;-61
2021/03/15 03:35:31;;;;;;;0.77;0.60;;;17.80;49.10;;;;;;4984797;28;20712;-57
2021/03/15 03:37:57;;;;;;;1.30;0.70;;;17.80;49.00;;;;;;4989775;28;20062;-62
2021/03/15 03:40:23;;;;;;;0.75;0.57;;;17.70;49.00;;;;;;4986257;28;20410;-65
2021/03/15 03:42:48;;;;;;;0.50;0.50;;;17.80;49.00;;;;;;4986289;28;20030;-63
2021/03/15 03:45:14;;;;;;;1.35;0.50;;;17.80;49.00;;;;;;4984679;28;20030;-63
2021/03/15 03:47:39;;;;;;;1.30;0.85;;;17.70;49.00;;;;;;4985164;28;20537;-63
2021/03/15 03:50:24;;;;;;;1.27;0.95;;;17.70;49.00;;;;;;4961605;28;20043;-63
2021/03/15 03:52:54;;;;;;;1.00;0.50;;;17.80;49.00;;;;;;4987180;28;20652;-61
2021/03/15 03:55:21;;;;;;;1.27;0.50;;;17.80;48.90;;;;;;4984704;28;20045;-60
2021/03/15 03:57:46;;;;;;;0.77;0.70;;;17.80;48.80;;;;;;4968614;28;20093;-59
2021/03/15 04:00:13;;;;;;;1.10;0.45;;;17.80;48.90;;;;;;4983758;28;20084;-56
2021/03/15 04:02:45;;;;;;;0.90;0.63;;;17.80;48.80;;;;;;4984927;28;20077;-58
2021/03/15 04:05:15;;;;;;;0.80;0.50;;;17.80;48.80;;;;;;4977728;28;20038;-64
2021/03/15 04:07:44;;;;;;;3.17;0.70;;;17.80;48.90;;;;;;4984737;28;20035;-61
2021/03/15 04:10:10;;;;;;;0.80;0.80;;;17.80;48.80;;;;;;4983414;28;20125;-61
2021/03/15 04:12:37;;;;;;;0.77;0.73;;;17.80;48.80;;;;;;4966838;28;20113;-63
2021/03/15 04:15:03;;;;;;;0.73;0.60;;;17.80;48.80;;;;;;4983255;28;20042;-56
2021/03/15 04:17:36;;;;;;;0.50;0.50;;;17.80;48.90;;;;;;4983985;28;20045;-60
2021/03/15 04:20:09;;;;;;;0.68;0.60;;;17.80;48.80;;;;;;4967102;28;20067;-61
2021/03/15 04:22:38;;;;;;;0.82;0.50;;;17.80;48.70;;;;;;4967359;28;20046;-63
2021/03/15 04:25:04;;;;;;;1.02;0.50;;;17.90;48.70;;;;;;4983443;28;20057;-61
2021/03/15 04:27:30;;;;;;;1.00;0.57;;;17.80;48.70;;;;;;4966832;28;20058;-60
2021/03/15 04:29:55;;;;;;;1.20;0.50;;;17.80;48.70;;;;;;4984691;28;20038;-63
2021/03/15 04:32:21;;;;;;;1.05;0.60;;;17.80;48.60;;;;;;4966980;28;20421;-61
2021/03/15 04:34:47;;;;;;;2.33;0.70;;;17.80;48.60;;;;;;4967584;28;20035;-61
2021/03/15 04:37:12;;;;;;;0.70;0.70;;;17.80;48.60;;;;;;4982578;28;20045;-62
2021/03/15 04:39:38;;;;;;;1.08;0.70;;;17.80;48.50;;;;;;4967677;28;20101;-64
2021/03/15 04:42:04;;;;;;;0.98;0.50;;;17.80;48.60;;;;;;4985065;28;20030;-62
2021/03/15 04:44:30;;;;;;;0.95;0.50;;;17.80;48.60;;;;;;4984766;28;20045;-56
2021/03/15 04:46:56;;;;;;;1.83;0.82;;;17.80;48.60;;;;;;4985232;28;20038;-63
2021/03/15 04:49:22;;;;;;;3.80;0.75;;;17.80;49.30;;;;;;4968144;28;20038;-63
2021/03/15 04:51:47;;;;;;;2.70;0.88;;;17.80;48.80;;;;;;4984099;28;20045;-61
2021/03/15 04:54:13;;;;;;;1.17;0.68;;;17.80;48.70;;;;;;4956004;28;20491;-56
2021/03/15 04:56:39;;;;;;;2.15;0.70;;;17.80;48.70;;;;;;4977083;28;20038;-63
2021/03/15 04:59:04;;;;;;;0.80;0.80;;;17.80;48.60;;;;;;4978383;28;20037;-59
2021/03/15 05:01:31;;;;;;;3.45;0.73;;;17.80;48.70;;;;;;4978548;28;20027;-61
2021/03/15 05:03:57;;;;;;;1.98;0.57;;;17.80;48.70;;;;;;4955701;28;20054;-62
2021/03/15 05:06:22;;;;;;;0.98;0.60;;;17.80;48.60;;;;;;4979100;28;20105;-63
2021/03/15 05:08:49;;;;;;;1.50;0.70;;;17.80;48.60;;;;;;4967259;28;20038;-63
2021/03/15 05:11:14;;;;;;;1.20;1.10;;;17.80;48.60;;;;;;4977572;28;20514;-63
2021/03/15 05:13:40;;;;;;;1.80;0.80;;;17.80;48.60;;;;;;4978164;28;20126;-64
2021/03/15 05:16:06;;;;;;;3.38;0.95;;;17.80;48.60;;;;;;4992121;28;20122;-64
2021/03/15 05:18:31;;;;;;;2.90;0.77;;;17.70;48.50;;;;;;4979616;28;20054;-64
2021/03/15 05:20:57;;;;;;;2.45;0.70;;;17.70;48.40;;;;;;4958284;28;20146;-62
2021/03/15 05:23:23;;;;;;;1.15;0.70;;;17.70;48.40;;;;;;4972280;28;20477;-63
2021/03/15 05:25:50;;;;;;;1.27;0.68;;;17.70;48.30;;;;;;4982064;28;20042;-63
2021/03/15 05:28:16;;;;;;;1.77;0.40;;;17.80;48.30;;;;;;4975329;28;20034;-63
2021/03/15 05:30:41;;;;;;;0.98;0.80;;;17.80;48.20;;;;;;4973575;28;20557;-62
2021/03/15 05:33:13;;;;;;;1.33;0.60;;;17.80;48.10;;;;;;4968948;28;20111;-62
2021/03/15 05:35:43;;;;;;;1.88;0.50;;;17.80;48.10;;;;;;4971967;28;20038;-63
2021/03/15 05:38:09;;;;;;;1.50;0.73;;;17.80;47.90;;;;;;4963492;28;20062;-62
2021/03/15 05:40:36;;;;;;;3.42;1.60;;;17.80;47.90;;;;;;4958022;28;20039;-65
2021/03/15 05:43:26;;;;;;;4.30;1.58;;;17.80;48.20;;;;;;4961857;28;20082;-64
2021/03/15 05:46:06;;;;;;;2.58;1.63;;;17.80;48.10;;;;;;4979605;28;20027;-56
2021/03/15 05:48:55;;;;;;;1.90;1.20;;;17.80;48.10;;;;;;4967606;28;20129;-62
2021/03/15 05:51:51;;;;;;;4.88;1.75;;;17.70;48.10;;;;;;4976914;28;20046;-62
2021/03/15 05:54:28;;;;;;;4.80;2.35;;;17.70;48.20;;;;;;4983120;28;20050;-64
2021/03/15 05:56:59;;;;;;;4.72;1.73;;;17.70;48.50;;;;;;4974036;28;20417;-62
2021/03/15 05:59:30;;;;;;;4.22;1.90;;;17.60;48.90;;;;;;4980383;28;20035;-60
2021/03/15 06:01:59;;;;;;;7.30;1.73;;;17.50;49.10;;;;;;4983148;28;20556;-60
2021/03/15 06:04:33;;;;;;;3.35;1.63;;;17.50;49.20;;;;;;4981610;28;20085;-62
2021/03/15 06:07:00;;;;;;;5.60;2.10;;;17.50;49.30;;;;;;4969972;28;20120;-62
2021/03/15 06:09:28;;;;;;;4.45;1.92;;;17.50;49.40;;;;;;4977898;28;20065;-60
2021/03/15 06:11:59;;;;;;;6.43;1.80;;;17.50;49.40;;;;;;4964936;28;20027;-64
2021/03/15 06:14:24;;;;;;;4.72;1.75;;;17.50;49.50;;;;;;4958883;28;20030;-64
2021/03/15 06:16:49;;;;;;;6.93;2.40;;;17.50;49.50;;;;;;4968502;28;20485;-64
2021/03/15 06:19:15;;;;;;;6.50;2.25;;;17.40;50.20;;;;;;4961647;28;20034;-62
2021/03/15 06:21:41;;;;;;;5.47;2.65;;;17.40;50.70;;;;;;4963287;28;20038;-66
2021/03/15 06:24:07;;;;;;;6.90;2.95;;;17.50;50.80;;;;;;4956906;28;20030;-64
2021/03/15 06:26:32;;;;;;;21.30;6.88;;;17.50;50.80;;;;;;4975700;28;20595;-65
2021/03/15 06:29:02;;;;;;;18.33;6.15;;;17.50;51.30;;;;;;4965867;28;20614;-63
2021/03/15 06:31:28;;;;;;;18.63;5.75;;;17.50;51.60;;;;;;4986613;28;20117;-64
2021/03/15 06:33:54;;;;;;;23.05;6.50;;;17.40;51.50;;;;;;4961141;28;20114;-62
2021/03/15 06:36:19;;;;;;;20.63;6.63;;;17.50;51.70;;;;;;4969396;28;20039;-62
2021/03/15 06:38:45;;;;;;;20.38;6.70;;;17.50;51.80;;;;;;4969936;28;20111;-63
2021/03/15 06:41:11;;;;;;;18.98;6.13;;;17.40;51.70;;;;;;4980734;28;20477;-62
2021/03/15 06:43:36;;;;;;;20.45;5.18;;;17.40;51.80;;;;;;4961683;28;20031;-64
2021/03/15 06:46:02;;;;;;;17.05;5.82;;;17.40;51.70;;;;;;4971963;28;20510;-64
2021/03/15 06:48:27;;;;;;;22.10;6.70;;;17.50;51.70;;;;;;4977912;28;20035;-63
2021/03/15 06:50:54;;;;;;;20.42;6.40;;;17.50;51.80;;;;;;4986052;28;20030;-61
2021/03/15 06:53:20;;;;;;;16.42;5.43;;;17.50;51.60;;;;;;4986832;28;20085;-64
2021/03/15 06:55:47;;;;;;;18.55;6.65;;;17.50;51.40;;;;;;4986464;28;20736;-63
2021/03/15 06:58:23;;;;;;;15.02;5.97;;;17.50;51.30;;;;;;4985372;28;20038;-59
2021/03/15 07:00:48;;;;;;;16.05;5.75;;;17.60;51.10;;;;;;4986049;28;20108;-62
2021/03/15 07:03:21;;;;;;;16.70;5.20;;;17.60;51.00;;;;;;4979182;28;20034;-64
2021/03/15 07:05:59;;;;;;;13.55;5.63;;;17.60;50.70;;;;;;4986019;28;20585;-63
2021/03/15 07:08:25;;;;;;;25.08;5.07;;;17.70;50.50;;;;;;4985793;28;20031;-62
2021/03/15 07:10:51;;;;;;;14.27;4.47;;;17.70;50.30;;;;;;4985862;28;20046;-62
2021/03/15 07:13:20;;;;;;;11.82;4.45;;;17.70;50.20;;;;;;4985698;28;20042;-64
2021/03/15 07:15:47;;;;;;;11.40;4.85;;;17.70;50.10;;;;;;4983076;28;20038;-64
2021/03/15 07:18:16;;;;;;;13.65;5.53;;;17.80;50.10;;;;;;4976789;28;20056;-64
2021/03/15 07:20:48;;;;;;;10.88;4.28;;;17.70;50.10;;;;;;4976063;28;20038;-64
2021/03/15 07:23:14;;;;;;;11.23;4.47;;;17.70;50.00;;;;;;4985850;28;20053;-64
2021/03/15 07:25:40;;;;;;;12.77;3.97;;;17.80;50.00;;;;;;4985117;28;20545;-64
2021/03/15 07:28:06;;;;;;;15.45;4.60;;;17.80;50.00;;;;;;4985708;28;20605;-64
2021/03/15 07:30:41;;;;;;;13.38;4.53;;;17.80;49.90;;;;;;4985802;28;20046;-63
2021/03/15 07:33:24;;;;;;;14.57;4.28;;;17.80;49.80;;;;;;4971319;28;20054;-62
2021/03/15 07:35:50;;;;;;;8.43;3.40;;;17.80;49.70;;;;;;4985434;28;20053;-62
2021/03/15 07:38:15;;;;;;;8.48;3.30;;;17.70;49.60;;;;;;4986751;28;20042;-64
2021/03/15 07:40:43;;;;;;;8.90;3.03;;;17.80;49.50;;;;;;4985466;28;20030;-62
2021/03/15 07:43:15;;;;;;;8.25;3.55;;;17.70;49.10;;;;;;4986429;28;20031;-62
2021/03/15 07:45:42;;;;;;;9.13;3.08;;;17.80;49.20;;;;;;4983188;28;20109;-62
2021/03/15 07:48:31;;;;;;;6.57;2.85;;;17.70;48.90;;;;;;4985587;28;20069;-62
2021/03/15 07:51:04;;;;;;;6.82;2.47;;;17.80;49.00;;;;;;4986223;28;20493;-64
2021/03/15 07:53:34;;;;;;;7.47;3.00;;;17.80;49.00;;;;;;4986228;28;20043;-64
2021/03/15 07:55:59;;;;;;;7.85;3.08;;;17.80;48.60;;;;;;4985710;28;20026;-63
2021/03/15 07:58:36;;;;;;;6.78;2.60;;;17.80;48.90;;;;;;4986408;28;20034;-64
2021/03/15 08:01:02;;;;;;;7.18;2.95;;;17.80;48.80;;;;;;4985808;28;20034;-62
2021/03/15 08:03:27;;;;;;;8.02;3.15;;;17.70;48.90;;;;;;4985221;28;20038;-63
2021/03/15 08:05:55;;;;;;;4.82;2.45;;;17.70;48.80;;;;;;4985672;28;20042;-63
2021/03/15 08:08:20;;;;;;;4.97;2.30;;;17.70;49.30;;;;;;4985973;28;20037;-65
2021/03/15 08:10:46;;;;;;;6.93;3.05;;;17.60;49.60;;;;;;4982722;28;20035;-62
2021/03/15 08:13:12;;;;;;;4.40;2.22;;;17.70;49.00;;;;;;4973712;28;20038;-63
2021/03/15 08:15:39;;;;;;;6.00;2.10;;;17.70;49.60;;;;;;4984589;28;22668;-64
2021/03/15 08:20:44;;;;;;;6.25;1.90;;;17.50;50.20;;;;;;5098265;22;20046;-64
2021/03/15 08:23:11;;;;;;;7.30;2.47;;;17.50;50.50;;;;;;4978084;28;20038;-65
2021/03/15 08:25:37;;;;;;;5.05;1.95;;;17.50;50.60;;;;;;4983041;28;20035;-65
2021/03/15 08:28:03;;;;;;;7.10;2.05;;;17.50;50.70;;;;;;4967567;28;20031;-62
2021/03/15 08:30:30;;;;;;;4.55;2.15;;;17.50;50.70;;;;;;4984232;28;20042;-62
2021/03/15 08:32:56;;;;;;;7.30;1.95;;;17.50;50.60;;;;;;4985236;28;20410;-65
2021/03/15 08:35:21;;;;;;;3.63;1.85;;;17.50;50.70;;;;;;4967621;28;20037;-65
2021/03/15 08:38:00;;;;;;;6.53;2.15;;;17.50;50.70;;;;;;4967904;28;20043;-61
2021/03/15 08:40:44;;;;;;;5.07;1.73;;;17.50;50.60;;;;;;4969957;28;20042;-60
2021/03/15 08:43:18;;;;;;;3.72;1.60;;;17.50;50.60;;;;;;4968114;28;20039;-61
2021/03/15 08:45:49;;;;;;;3.72;1.98;;;17.50;50.50;;;;;;4973052;28;20054;-65
2021/03/15 08:48:15;;;;;;;6.20;2.00;;;17.50;50.50;;;;;;4999424;28;20093;-63
2021/03/15 08:50:42;;;;;;;4.78;1.73;;;17.50;50.40;;;;;;4985381;28;20137;-65
2021/03/15 08:53:08;;;;;;;5.00;1.50;;;17.50;50.50;;;;;;4985225;28;20210;-62
2021/03/15 08:55:44;;;;;;;5.22;1.90;;;17.50;50.50;;;;;;4985366;28;20093;-63
2021/03/15 08:58:37;;;;;;;3.63;1.45;;;17.50;50.60;;;;;;4984600;28;20402;-62
2021/03/15 09:01:13;;;;;;;7.47;1.92;;;17.50;50.60;;;;;;4977413;28;20580;-63
2021/03/15 09:04:03;;;;;;;14.23;1.63;;;17.60;50.50;;;;;;4984099;28;20049;-64
2021/03/15 09:06:37;;;;;;;4.57;1.83;;;17.60;50.60;;;;;;4984128;28;20034;-64
2021/03/15 09:09:25;;;;;;;5.10;1.65;;;17.60;50.50;;;;;;4984279;28;20050;-64
2021/03/15 09:11:51;;;;;;;2.30;1.30;;;17.60;50.40;;;;;;4984104;28;20053;-65
2021/03/15 09:14:17;;;;;;;3.65;1.40;;;17.70;50.10;;;;;;4983554;28;20046;-65
2021/03/15 09:16:53;;;;;;;4.38;2.10;;;17.70;50.10;;;;;;4984539;28;20045;-62
2021/03/15 09:19:26;;;;;;;6.90;2.30;;;17.70;49.90;;;;;;4984751;28;20034;-65
2021/03/15 09:21:55;;;;;;;4.50;2.00;;;17.80;49.60;;;;;;4977860;28;20553;-60
2021/03/15 09:24:46;;;;;;;8.23;1.48;;;17.90;49.60;;;;;;4985022;28;20552;-64
2021/03/15 09:27:28;;;;;;;3.42;1.50;;;17.90;49.20;;;;;;4978877;28;20121;-65
2021/03/15 09:30:02;;;;;;;4.63;1.90;;;17.90;49.40;;;;;;4998360;28;20631;-64
2021/03/15 09:32:35;;;;;;;4.93;1.48;;;18.00;49.30;;;;;;4983912;28;20826;-64
2021/03/15 09:35:19;;;;;;;3.20;1.58;;;18.00;49.30;;;;;;4984293;28;20097;-64
2021/03/15 09:37:54;;;;;;;3.53;1.38;;;18.00;49.10;;;;;;4993510;28;20755;-61
2021/03/15 09:40:28;;;;;;;5.03;1.73;;;17.90;49.00;;;;;;4987477;28;20070;-67
2021/03/15 09:42:54;;;;;;;3.53;1.48;;;17.90;49.10;;;;;;4988845;28;20413;-65
2021/03/15 09:45:36;;;;;;;3.35;1.27;;;18.00;49.30;;;;;;4987104;28;20039;-65
2021/03/15 09:48:03;;;;;;;4.90;1.40;;;17.90;49.40;;;;;;4987332;28;20039;-66
2021/03/15 09:50:31;;;;;;;2.50;1.20;;;17.90;49.50;;;;;;5003110;28;20137;-62
2021/03/15 09:53:10;;;;;;;3.33;1.50;;;17.90;49.30;;;;;;4988412;28;20078;-64
2021/03/15 09:55:35;;;;;;;4.10;1.58;;;17.90;49.10;;;;;;4988373;28;20506;-64
2021/03/15 09:58:03;;;;;;;2.92;1.35;;;17.90;49.20;;;;;;4988104;28;20053;-66
2021/03/15 10:00:28;;;;;;;6.15;1.52;;;17.90;49.20;;;;;;4987775;28;20034;-65
2021/03/15 10:02:53;;;;;;;1.75;1.30;;;17.90;49.00;;;;;;5003891;28;20457;-65
2021/03/15 10:05:19;;;;;;;2.60;1.38;;;17.80;49.10;;;;;;4988569;28;20042;-61
2021/03/15 10:07:48;;;;;;;2.67;1.35;;;17.90;49.10;;;;;;4988284;28;20130;-63
2021/03/15 10:10:15;;;;;;;3.25;1.35;;;17.80;48.90;;;;;;4988362;28;20038;-64
2021/03/15 10:12:41;;;;;;;3.28;1.20;;;17.90;49.60;;;;;;4986956;28;20062;-63
2021/03/15 10:15:11;;;;;;;2.03;1.20;;;17.80;48.60;;;;;;4985464;28;20587;-64
2021/03/15 10:17:36;;;;;;;3.58;1.30;;;17.80;48.70;;;;;;4987066;28;20056;-63
2021/03/15 10:20:04;;;;;;;2.20;0.98;;;17.90;48.80;;;;;;4986455;28;20114;-65
2021/03/15 10:22:30;;;;;;;3.58;0.90;;;17.90;48.60;;;;;;4985888;28;20042;-62
2021/03/15 10:24:55;;;;;;;2.45;1.13;;;17.80;48.80;;;;;;4987269;28;20117;-62
2021/03/15 10:27:23;;;;;;;2.47;1.25;;;17.80;48.80;;;;;;4987687;28;20046;-62
2021/03/15 10:29:56;;;;;;;9.85;1.65;;;17.80;48.70;;;;;;4985147;28;20309;-62
2021/03/15 10:32:26;;;;;;;1.40;1.20;;;17.80;48.60;;;;;;5003004;28;20405;-62
2021/03/15 10:34:59;;;;;;;2.10;1.00;;;17.80;48.50;;;;;;4987622;28;20042;-62
2021/03/15 10:37:25;;;;;;;1.73;1.00;;;17.80;48.70;;;;;;5001388;28;20066;-63
2021/03/15 10:39:51;;;;;;;1.52;0.73;;;17.80;48.50;;;;;;5002181;28;20061;-63
2021/03/15 10:42:18;;;;;;;1.58;1.08;;;17.80;48.70;;;;;;4986400;28;20030;-64
2021/03/15 10:44:44;;;;;;;4.78;1.40;;;17.80;48.80;;;;;;4988238;28;20049;-65
2021/03/15 10:47:11;;;;;;;1.30;1.10;;;17.80;49.00;;;;;;4988341;28;20869;-64
2021/03/15 10:49:36;;;;;;;2.10;1.10;;;17.80;48.80;;;;;;5002414;28;20572;-64
2021/03/15 10:52:02;;;;;;;2.08;1.05;;;17.80;49.00;;;;;;4987474;28;20137;-62
2021/03/15 10:54:31;;;;;;;1.63;1.15;;;17.80;48.90;;;;;;4987562;28;20038;-59
2021/03/15 10:57:16;;;;;;;3.97;1.25;;;17.80;49.00;;;;;;4986924;28;20650;-65
2021/03/15 10:59:42;;;;;;;3.00;1.00;;;17.80;48.70;;;;;;4986826;28;20038;-62
2021/03/15 11:02:08;;;;;;;3.65;1.15;;;17.80;48.90;;;;;;4985924;28;20030;-61
2021/03/15 11:04:37;;;;;;;1.42;0.80;;;17.80;48.90;;;;;;4987597;28;20417;-62
2021/03/15 11:07:21;;;;;;;2.25;1.05;;;17.70;48.90;;;;;;4980034;28;20043;-63
2021/03/15 11:10:00;;;;;;;3.03;1.00;;;17.80;48.90;;;;;;4987512;28;20031;-62
2021/03/15 11:12:39;;;;;;;2.28;1.00;;;17.80;48.90;;;;;;4972928;28;20038;-64
2021/03/15 11:15:20;;;;;;;2.95;0.88;;;17.80;49.00;;;;;;4973316;28;20066;-65
2021/03/15 11:18:11;;;;;;;3.88;0.88;;;17.80;48.90;;;;;;4982388;28;20038;-63
2021/03/15 11:20:38;;;;;;;1.15;0.70;;;17.70;48.90;;;;;;4963567;28;20054;-66
2021/03/15 11:23:04;;;;;;;2.33;0.73;;;17.80;48.90;;;;;;4975283;28;20061;-65
2021/03/15 11:25:30;;;;;;;2.72;0.95;;;17.70;48.90;;;;;;4968801;28;20030;-63
2021/03/15 11:28:06;;;;;;;4.15;1.10;;;17.80;49.00;;;;;;4992441;28;20034;-63
2021/03/15 11:30:32;;;;;;;3.78;0.80;;;17.70;49.00;;;;;;4976506;28;20038;-61
2021/03/15 11:33:01;;;;;;;2.20;1.13;;;17.70;49.20;;;;;;4974639;28;20125;-62
2021/03/15 11:35:27;;;;;;;2.63;0.80;;;17.60;49.60;;;;;;4970019;28;20046;-59
2021/03/15 11:37:52;;;;;;;5.63;3.55;;;17.50;49.90;;;;;;4972583;28;20039;-57
2021/03/15 11:40:36;;;;;;;16.83;12.13;;;17.50;50.10;;;;;;4984561;28;20035;-59
2021/03/15 11:43:02;;;;;;;16.30;11.52;;;17.40;50.60;;;;;;4973964;28;20113;-59
2021/03/15 11:45:28;;;;;;;15.35;11.10;;;17.40;50.80;;;;;;4982790;28;20057;-62
2021/03/15 11:47:53;;;;;;;20.48;10.40;;;17.40;50.90;;;;;;4986202;28;20046;-57
2021/03/15 11:50:19;;;;;;;15.48;10.50;;;17.40;50.90;;;;;;4985189;28;20046;-63
2021/03/15 11:52:44;;;;;;;23.77;16.27;;;17.40;50.90;;;;;;4986776;28;20042;-64
2021/03/15 11:55:11;;;;;;;30.33;21.58;;;17.40;51.50;;;;;;4986078;28;20045;-60
2021/03/15 11:57:39;;;;;;;32.88;22.95;;;17.40;52.20;;;;;;4968270;28;20057;-63
2021/03/15 12:00:11;;;;;;;32.00;22.98;;;17.40;52.70;;;;;;4986509;28;20094;-63
2021/03/15 12:02:37;;;;;;;28.58;22.52;;;17.40;53.50;;;;;;4985618;28;20030;-63
2021/03/15 12:05:07;;;;;;;28.50;21.38;;;17.40;53.60;;;;;;4985581;28;20390;-64
2021/03/15 12:07:33;;;;;;;29.00;21.23;;;17.50;54.20;;;;;;4994911;28;20058;-64
2021/03/15 12:09:59;;;;;;;28.60;19.60;;;17.50;54.50;;;;;;4990663;28;20038;-65
2021/03/15 12:12:24;;;;;;;26.73;19.27;;;17.50;54.60;;;;;;4990654;28;20553;-58
2021/03/15 12:14:50;;;;;;;25.42;18.20;;;17.50;54.50;;;;;;4986527;28;20042;-63
2021/03/15 12:17:16;;;;;;;24.02;16.95;;;17.50;54.10;;;;;;4985983;28;20632;-62
2021/03/15 12:19:41;;;;;;;22.63;16.63;;;17.50;53.60;;;;;;4986104;28;20494;-62
2021/03/15 12:22:07;;;;;;;19.10;14.63;;;17.50;53.70;;;;;;4984534;28;20033;-61
2021/03/15 12:24:32;;;;;;;23.25;16.08;;;17.50;53.80;;;;;;4985120;28;20041;-59
2021/03/15 12:26:58;;;;;;;21.85;15.10;;;17.50;53.60;;;;;;4985267;28;20034;-63
2021/03/15 12:29:23;;;;;;;18.42;13.20;;;17.50;53.60;;;;;;4984077;28;20350;-60
2021/03/15 12:31:49;;;;;;;21.40;14.05;;;17.50;53.50;;;;;;4985652;28;20030;-63
2021/03/15 12:34:14;;;;;;;20.10;13.57;;;17.40;53.30;;;;;;4985799;28;20110;-64
2021/03/15 12:36:40;;;;;;;17.40;12.80;;;17.50;53.90;;;;;;4984016;28;20678;-63
2021/03/15 12:39:05;;;;;;;17.15;11.88;;;17.40;53.20;;;;;;4984543;28;20113;-63
2021/03/15 12:41:31;;;;;;;13.80;11.05;;;17.50;53.10;;;;;;4984362;28;20084;-61
2021/03/15 12:43:56;;;;;;;15.63;10.95;;;17.50;53.00;;;;;;4985844;28;20489;-63
2021/03/15 12:46:22;;;;;;;13.88;9.18;;;17.50;53.70;;;;;;4985572;28;20041;-61
2021/03/15 12:48:48;;;;;;;16.77;9.27;;;17.50;54.20;;;;;;4986105;28;20030;-63
2021/03/15 12:51:13;;;;;;;14.27;9.32;;;17.50;54.50;;;;;;4985380;28;20042;-60
2021/03/15 12:53:39;;;;;;;12.85;7.93;;;17.50;54.40;;;;;;4999539;28;20174;-63
2021/03/15 12:56:05;;;;;;;11.35;7.72;;;17.50;55.00;;;;;;4985588;28;20068;-58